CheckWX is a tool to help pilots better visualize weather data.  It is not intended as a substitute for an official pre-flight weather briefing.

14:44:34 UTC

KBEH METAR
Southwest Michigan Regional Airport
Benton Harbor, Michigan, USA
Current

52 mins ago

KBEH 201353Z AUTO 32007G22KT 300V360 10SM OVC031 09/04 A2999 RMK AO2 SLP157 T00890039
Observed
May-20 @ 13:53 UTC
Wind
  • 320° at 7 KTS
  • Gusting to 22 KTS
Visibility
10 SM
Flight Rules
VFR
Cloud Levels
  • Overcast at 3,100' AGL
Temperature
C / 48°F
Dewpoint
C / 39°F
Humidity
71%
Altimeter
29.99" Hg
Pressure
1015.62 hPa
Previous

1 hour ago

KBEH 201315Z AUTO 32007G20KT 10SM SCT024 OVC034 08/04 A2997 RMK AO2 T00830044
Observed
May-20 @ 13:15 UTC
Wind
  • 320° at 7 KTS
  • Gusting to 20 KTS
Visibility
10 SM
Flight Rules
VFR
Cloud Levels
  • Scattered at 2,400' AGL
  • Overcast at 3,400' AGL
Temperature
C / 46°F
Dewpoint
C / 39°F
Humidity
76%
Altimeter
29.97" Hg
Pressure
1014.92 hPa
Previous

2 hours ago

KBEH 201253Z AUTO 32010G17KT 10SM BKN023 OVC028 08/05 A2996 RMK AO2 SLP145 T00830050
Observed
May-20 @ 12:53 UTC
Wind
  • 320° at 10 KTS
  • Gusting to 17 KTS
Visibility
10 SM
Flight Rules
MVFR
Cloud Levels
  • Broken at 2,300' AGL
  • Overcast at 2,800' AGL
Temperature
C / 46°F
Dewpoint
C / 41°F
Humidity
82%
Altimeter
29.96" Hg
Pressure
1014.52 hPa